createdAt,value
2022-08-05T00:00:54.068Z,98177.47
2022-08-05T00:03:20.531Z,98165.78
2022-08-05T00:06:05.365Z,98176.75
2022-08-05T00:08:36.290Z,98178.06
2022-08-05T00:11:20.324Z,98158.88
2022-08-05T00:13:53.001Z,98163.53
2022-08-05T00:16:35.423Z,98171.16
2022-08-05T00:19:03.917Z,98172.88
2022-08-05T00:21:30.749Z,98172.50
2022-08-05T00:24:10.088Z,98166.84
2022-08-05T00:26:37.940Z,98168.47
2022-08-05T00:29:04.383Z,98166.84
2022-08-05T00:31:53.986Z,98162.78
2022-08-05T00:34:56.409Z,98165.84
2022-08-05T00:37:11.542Z,98161.78
2022-08-05T00:39:57.530Z,98159.56
2022-08-05T00:42:34.207Z,98152.03
2022-08-05T00:45:01.426Z,98155.44
2022-08-05T00:47:31.608Z,98145.34
2022-08-05T00:50:14.849Z,98155.59
2022-08-05T00:52:41.828Z,98149.03
2022-08-05T00:55:12.250Z,98161.97
2022-08-05T00:57:58.012Z,98152.56
2022-08-05T01:00:26.052Z,98165.03
2022-08-05T01:02:52.724Z,98163.16
2022-08-05T01:05:19.503Z,98172.41
2022-08-05T01:08:39.925Z,98173.22
2022-08-05T01:10:51.526Z,98180.78
2022-08-05T01:13:57.642Z,98183.72
2022-08-05T01:16:29.351Z,98179.38
2022-08-05T01:19:02.816Z,98182.47
2022-08-05T01:21:41.115Z,98188.09
2022-08-05T01:24:26.172Z,98194.59
2022-08-05T01:26:56.621Z,98201.69
2022-08-05T01:29:37.175Z,98191.78
2022-08-05T01:32:12.300Z,98189.25
2022-08-05T01:34:44.225Z,98187.81
2022-08-05T01:37:24.418Z,98193.00
2022-08-05T01:39:54.820Z,98183.47
2022-08-05T01:42:27.939Z,98179.22
2022-08-05T01:44:57.260Z,98182.22
2022-08-05T01:47:38.724Z,98181.25
2022-08-05T01:50:15.402Z,98193.94
2022-08-05T01:52:44.170Z,98191.88
2022-08-05T01:55:13.380Z,98196.00
2022-08-05T01:58:10.553Z,98197.16
2022-08-05T02:00:31.453Z,98193.72
2022-08-05T02:03:03.583Z,98192.75
2022-08-05T02:05:34.388Z,98198.84
2022-08-05T02:08:03.866Z,98184.97
2022-08-05T02:10:41.717Z,98191.66
2022-08-05T02:13:16.391Z,98192.69
2022-08-05T02:15:57.621Z,98190.25
2022-08-05T02:18:34.865Z,98172.31
2022-08-05T02:21:06.666Z,98180.28
2022-08-05T02:23:44.227Z,98188.31
2022-08-05T02:26:17.232Z,98182.78
2022-08-05T02:28:46.332Z,98193.81
2022-08-05T02:31:23.045Z,98193.63
2022-08-05T02:33:57.352Z,98201.03
2022-08-05T02:36:27.485Z,98198.09
2022-08-05T02:38:57.526Z,98204.94
2022-08-05T02:41:28.286Z,98203.16
2022-08-05T02:44:11.306Z,98209.59
2022-08-05T02:46:53.842Z,98208.91
2022-08-05T02:49:35.783Z,98206.84
2022-08-05T02:52:07.639Z,98207.91
2022-08-05T02:54:37.022Z,98209.19
2022-08-05T02:57:10.399Z,98217.19
2022-08-05T02:59:54.420Z,98214.22
2022-08-05T03:02:27.600Z,98218.00
2022-08-05T03:04:57.301Z,98218.38
2022-08-05T03:07:59.179Z,98215.19
2022-08-05T03:10:15.680Z,98215.94
2022-08-05T03:12:49.489Z,98202.88
2022-08-05T03:15:18.513Z,98196.38
2022-08-05T03:17:44.990Z,98200.28
2022-08-05T03:20:11.827Z,98199.47
2022-08-05T03:22:46.944Z,98199.47
2022-08-05T03:25:32.612Z,98199.59
2022-08-05T03:28:08.417Z,98194.94
2022-08-05T03:30:36.743Z,98209.75
2022-08-05T03:33:06.252Z,98196.91
2022-08-05T03:35:40.746Z,98206.97
2022-08-05T03:38:11.032Z,98207.09
2022-08-05T03:40:45.310Z,98200.09
2022-08-05T03:44:09.024Z,98197.47
2022-08-05T03:46:03.306Z,98196.41
2022-08-05T03:48:30.994Z,98197.47
2022-08-05T03:52:37.864Z,98190.34
2022-08-05T03:55:50.339Z,98198.25
2022-08-05T03:56:55.258Z,98198.25
2022-08-05T03:59:47.000Z,98197.09
2022-08-05T04:02:38.784Z,98195.28
2022-08-05T04:05:12.999Z,98194.13
2022-08-05T04:07:57.585Z,98193.25
2022-08-05T04:10:27.686Z,98199.75
2022-08-05T04:12:58.939Z,98196.41
2022-08-05T04:15:27.899Z,98182.91
2022-08-05T04:18:07.198Z,98188.06
2022-08-05T04:20:35.990Z,98189.69
2022-08-05T04:23:02.439Z,98195.50
2022-08-05T04:25:56.949Z,98193.03
2022-08-05T04:28:17.230Z,98191.88
2022-08-05T04:30:44.481Z,98201.00
2022-08-05T04:33:12.334Z,98196.19
2022-08-05T04:36:10.651Z,98204.44
2022-08-05T04:38:39.151Z,98205.56
2022-08-05T04:41:05.776Z,98196.44
2022-08-05T04:43:34.201Z,98197.47
2022-08-05T04:46:01.079Z,98207.00
2022-08-05T04:48:28.359Z,98210.84
2022-08-05T04:51:02.828Z,98211.22
2022-08-05T04:53:33.413Z,98225.84
2022-08-05T04:56:32.306Z,98228.38
2022-08-05T04:58:48.135Z,98242.00
2022-08-05T05:01:14.650Z,98246.13
2022-08-05T05:04:00.338Z,98263.41
2022-08-05T05:06:39.351Z,98285.28
2022-08-05T05:09:17.216Z,98313.19
2022-08-05T05:11:55.710Z,98325.56
2022-08-05T05:14:27.744Z,98334.91
2022-08-05T05:16:59.916Z,98327.16
2022-08-05T05:19:36.575Z,98327.38
2022-08-05T05:22:24.282Z,98319.72
2022-08-05T05:24:58.888Z,98322.66
2022-08-05T05:27:44.567Z,98320.28
2022-08-05T05:30:28.847Z,98332.09
2022-08-05T05:32:56.994Z,98331.41
2022-08-05T05:35:27.841Z,98313.25
2022-08-05T05:37:59.794Z,98320.03
2022-08-05T05:40:29.425Z,98317.19
2022-08-05T05:42:57.194Z,98313.63
2022-08-05T05:45:24.544Z,98314.84
2022-08-05T05:48:05.592Z,98314.50
2022-08-05T05:50:44.147Z,98300.81
2022-08-05T05:53:22.259Z,98309.75
2022-08-05T05:55:51.813Z,98296.16
2022-08-05T05:58:30.149Z,98308.97
2022-08-05T06:01:02.556Z,98307.06
2022-08-05T06:03:53.980Z,98307.44
2022-08-05T06:06:27.918Z,98301.41
2022-08-05T06:08:57.450Z,98305.81
2022-08-05T06:11:24.167Z,98319.44
2022-08-05T06:13:53.958Z,98320.13
2022-08-05T06:16:28.358Z,98314.75
2022-08-05T06:19:00.787Z,98315.19
2022-08-05T06:21:35.693Z,98318.69
2022-08-05T06:24:03.141Z,98319.34
2022-08-05T06:26:31.840Z,98331.88
2022-08-05T06:29:06.054Z,98335.50
2022-08-05T06:31:46.797Z,98334.19
2022-08-05T06:34:13.684Z,98343.38
2022-08-05T06:36:57.039Z,98355.56
2022-08-05T06:39:27.225Z,98352.19
2022-08-05T06:41:59.000Z,98362.75
2022-08-05T06:44:26.086Z,98361.88
2022-08-05T06:46:52.656Z,98365.81
2022-08-05T06:49:21.515Z,98369.09
2022-08-05T06:52:07.765Z,98379.97
2022-08-05T06:54:54.166Z,98382.44
2022-08-05T06:58:03.281Z,98386.44
2022-08-05T07:00:07.909Z,98383.94
2022-08-05T07:02:47.009Z,98372.78
2022-08-05T07:05:23.450Z,98375.53
2022-08-05T07:08:04.380Z,98374.41
2022-08-05T07:10:32.656Z,98376.44
2022-08-05T07:13:56.950Z,98371.50
2022-08-05T07:18:01.490Z,98376.25
2022-08-05T07:19:09.924Z,98380.47
2022-08-05T07:22:00.690Z,98385.56
2022-08-05T07:24:23.228Z,98376.84
2022-08-05T07:26:55.094Z,98381.31
2022-08-05T07:29:25.355Z,98376.63
2022-08-05T07:32:08.209Z,98382.84
2022-08-05T07:34:35.785Z,98381.53
2022-08-05T07:37:09.541Z,98392.66
2022-08-05T07:40:25.836Z,98395.69
2022-08-05T07:42:31.725Z,98395.09
2022-08-05T07:45:00.614Z,98390.78
2022-08-05T07:47:27.090Z,98401.44
2022-08-05T07:50:07.393Z,98408.69
2022-08-05T07:52:42.048Z,98411.81
2022-08-05T07:55:44.586Z,98410.00
2022-08-05T07:58:03.049Z,98421.91
2022-08-05T08:00:30.652Z,98413.22
2022-08-05T08:03:14.835Z,98409.69
2022-08-05T08:05:49.376Z,98408.38
2022-08-05T08:08:16.874Z,98406.28
2022-08-05T08:10:49.015Z,98398.06
2022-08-05T08:13:21.869Z,98411.19
2022-08-05T08:16:50.232Z,98401.69
2022-08-05T08:18:41.819Z,98403.31
2022-08-05T08:21:17.704Z,98395.94
2022-08-05T08:24:03.872Z,98394.38
2022-08-05T08:26:30.783Z,98397.69
2022-08-05T08:29:21.540Z,98402.97
2022-08-05T08:31:45.466Z,98407.66
2022-08-05T08:34:11.971Z,98394.69
2022-08-05T08:36:50.192Z,98383.66
2022-08-05T08:39:23.417Z,98381.88
2022-08-05T08:42:00.009Z,98390.63
2022-08-05T08:45:17.713Z,98394.50
2022-08-05T08:48:06.028Z,98394.84
2022-08-05T08:50:33.017Z,98381.13
2022-08-05T08:53:12.011Z,98384.72
2022-08-05T08:56:02.586Z,98379.31
2022-08-05T08:58:43.548Z,98371.28
2022-08-05T09:01:16.841Z,98377.53
2022-08-05T09:03:48.342Z,98385.56
2022-08-05T09:06:24.307Z,98375.25
2022-08-05T09:08:55.425Z,98379.44
2022-08-05T09:11:52.649Z,98373.16
2022-08-05T09:14:54.696Z,98375.31
2022-08-05T09:16:55.159Z,98364.16
2022-08-05T09:19:28.046Z,98360.53
2022-08-05T09:22:23.490Z,98366.56
2022-08-05T09:25:13.889Z,98370.44
2022-08-05T09:28:04.213Z,98370.03
2022-08-05T09:30:34.759Z,98358.81
2022-08-05T09:33:02.297Z,98363.19
2022-08-05T09:35:29.462Z,98356.13
2022-08-05T09:38:12.009Z,98362.50
2022-08-05T09:40:51.783Z,98354.56
2022-08-05T09:43:41.587Z,98357.63
2022-08-05T09:46:27.994Z,98360.34
2022-08-05T09:49:08.126Z,98353.88
2022-08-05T09:51:43.464Z,98343.59
2022-08-05T09:54:11.401Z,98345.31
2022-08-05T09:56:38.918Z,98338.91
2022-08-05T09:59:07.216Z,98340.75
2022-08-05T10:01:36.854Z,98340.34
2022-08-05T10:04:13.634Z,98324.78
2022-08-05T10:06:58.846Z,98336.19
2022-08-05T10:09:28.123Z,98337.25
2022-08-05T10:12:30.466Z,98326.94
2022-08-05T10:14:54.366Z,98328.28
2022-08-05T10:17:37.239Z,98329.09
2022-08-05T10:20:10.790Z,98320.91
2022-08-05T10:22:48.659Z,98323.47
2022-08-05T10:25:19.068Z,98318.50
2022-08-05T10:28:13.339Z,98320.06
2022-08-05T10:31:20.669Z,98307.38
2022-08-05T10:33:25.624Z,98303.72
2022-08-05T10:35:59.153Z,98300.88
2022-08-05T10:38:28.692Z,98301.72
2022-08-05T10:41:13.905Z,98293.94
2022-08-05T10:44:04.794Z,98284.34
2022-08-05T10:46:43.428Z,98285.72
2022-08-05T10:49:16.574Z,98281.47
2022-08-05T10:51:57.782Z,98282.50
2022-08-05T10:54:56.168Z,98282.78
2022-08-05T10:57:31.763Z,98286.59
2022-08-05T11:00:18.702Z,98291.97
2022-08-05T11:03:25.285Z,98283.09
2022-08-05T11:06:15.931Z,98286.75
2022-08-05T11:09:32.249Z,98285.47
2022-08-05T11:12:26.595Z,98285.16
2022-08-05T11:15:20.479Z,98285.59
2022-08-05T11:18:07.685Z,98285.38
2022-08-05T11:20:47.493Z,98285.34
2022-08-05T11:23:33.289Z,98287.34
2022-08-05T11:26:17.253Z,98287.19
2022-08-05T11:29:06.775Z,98287.78
2022-08-05T11:31:57.836Z,98278.66
2022-08-05T11:34:51.951Z,98296.69
2022-08-05T11:38:36.741Z,98299.66
2022-08-05T11:41:03.456Z,98300.38
2022-08-05T11:44:07.146Z,98289.94
2022-08-05T11:47:10.330Z,98281.03
2022-08-05T11:49:33.993Z,98286.16
2022-08-05T11:52:01.258Z,98279.97
2022-08-05T11:54:38.081Z,98272.91
2022-08-05T11:57:08.447Z,98288.09
2022-08-05T11:59:50.958Z,98272.97
2022-08-05T12:02:29.947Z,98280.25
2022-08-05T12:05:00.167Z,98276.69
2022-08-05T12:08:03.732Z,98267.53
2022-08-05T12:10:21.393Z,98274.56
2022-08-05T12:12:59.397Z,98260.56
2022-08-05T12:15:35.863Z,98265.38
2022-08-05T12:18:10.675Z,98271.78
2022-08-05T12:20:38.768Z,98264.88
2022-08-05T12:23:11.985Z,98254.22
2022-08-05T12:25:56.650Z,98261.41
2022-08-05T12:28:37.800Z,98252.78
2022-08-05T12:31:04.832Z,98254.22
2022-08-05T12:33:36.527Z,98257.50
2022-08-05T12:36:08.165Z,98256.38
2022-08-05T12:38:38.091Z,98245.97
2022-08-05T12:41:13.812Z,98251.56
2022-08-05T12:43:57.465Z,98234.97
2022-08-05T12:46:29.422Z,98241.78
2022-08-05T12:49:19.028Z,98234.28
2022-08-05T12:52:13.649Z,98235.38
2022-08-05T12:54:39.896Z,98236.53
2022-08-05T12:57:09.453Z,98224.34
2022-08-05T13:01:57.318Z,98221.91
2022-08-05T13:02:36.068Z,98226.06
2022-08-05T13:05:06.370Z,98213.53
2022-08-05T13:07:59.382Z,98214.09
2022-08-05T13:10:19.710Z,98212.47
2022-08-05T13:12:51.056Z,98211.75
2022-08-05T13:15:42.220Z,98206.47
2022-08-05T13:18:19.924Z,98213.59
2022-08-05T13:20:47.376Z,98198.91
2022-08-05T13:23:16.433Z,98194.22
2022-08-05T13:25:52.572Z,98196.84
2022-08-05T13:28:26.355Z,98193.34
2022-08-05T13:30:53.398Z,98191.66
2022-08-05T13:34:21.194Z,98194.66
2022-08-05T13:36:07.144Z,98186.63
2022-08-05T13:38:42.036Z,98188.63
2022-08-05T13:41:09.415Z,98181.31
2022-08-05T13:43:44.163Z,98187.56
2022-08-05T13:46:43.652Z,98182.66
2022-08-05T13:49:10.245Z,98184.91
2022-08-05T13:51:41.550Z,98180.03
2022-08-05T13:54:15.302Z,98185.69
2022-08-05T13:56:45.128Z,98178.91
2022-08-05T13:59:24.603Z,98174.72
2022-08-05T14:01:56.481Z,98177.34
2022-08-05T14:04:43.840Z,98178.91
2022-08-05T14:07:56.885Z,98183.28
2022-08-05T14:10:13.795Z,98180.31
2022-08-05T14:12:48.905Z,98182.63
2022-08-05T14:16:08.954Z,98180.38
2022-08-05T14:18:03.881Z,98184.91
2022-08-05T14:20:30.999Z,98185.25
2022-08-05T14:22:58.974Z,98174.88
2022-08-05T14:25:28.069Z,98180.56
2022-08-05T14:27:54.796Z,98174.81
2022-08-05T14:30:21.659Z,98171.63
2022-08-05T14:32:48.848Z,98159.66
2022-08-05T14:35:16.200Z,98172.31
2022-08-05T14:37:51.015Z,98168.66
2022-08-05T14:40:24.503Z,98177.66
2022-08-05T14:42:51.433Z,98172.16
2022-08-05T14:45:18.321Z,98174.50
2022-08-05T14:48:04.033Z,98177.25
2022-08-05T14:50:31.523Z,98179.78
2022-08-05T14:52:59.581Z,98177.13
2022-08-05T14:55:38.347Z,98172.56
2022-08-05T14:58:10.966Z,98167.72
2022-08-05T15:00:59.347Z,98168.88
2022-08-05T15:03:33.718Z,98175.31
2022-08-05T15:06:08.098Z,98170.09
2022-08-05T15:08:59.082Z,98178.00
2022-08-05T15:11:52.745Z,98157.66
2022-08-05T15:14:33.445Z,98152.41
2022-08-05T15:17:03.798Z,98170.78
2022-08-05T15:19:30.850Z,98165.84
2022-08-05T15:21:57.976Z,98167.66
2022-08-05T15:24:27.447Z,98175.00
2022-08-05T15:26:53.900Z,98172.41
2022-08-05T15:29:22.835Z,98172.75
2022-08-05T15:31:53.116Z,98177.31
2022-08-05T15:34:33.074Z,98189.84
2022-08-05T15:37:06.876Z,98186.53
2022-08-05T15:41:01.187Z,98190.34
2022-08-05T15:42:56.868Z,98193.41
2022-08-05T15:45:14.803Z,98195.13
2022-08-05T15:47:42.653Z,98196.88
2022-08-05T15:50:15.178Z,98196.44
2022-08-05T15:52:53.128Z,98198.94
2022-08-05T15:55:24.879Z,98195.00
2022-08-05T15:57:51.832Z,98199.00
2022-08-05T16:00:26.057Z,98205.03
2022-08-05T16:03:01.984Z,98190.81
2022-08-05T16:05:28.686Z,98191.31
2022-08-05T16:07:55.171Z,98180.28
2022-08-05T16:10:25.595Z,98188.25
2022-08-05T16:12:53.663Z,98196.13
2022-08-05T16:15:23.009Z,98199.41
2022-08-05T16:17:58.057Z,98202.75
2022-08-05T16:20:25.544Z,98206.34
2022-08-05T16:22:54.295Z,98206.41
2022-08-05T16:25:20.736Z,98215.53
2022-08-05T16:28:02.143Z,98211.56
2022-08-05T16:30:32.301Z,98217.91
2022-08-05T16:33:00.371Z,98227.38
2022-08-05T16:35:33.686Z,98218.56
2022-08-05T16:38:23.996Z,98229.16
2022-08-05T16:40:59.703Z,98227.09
2022-08-05T16:43:30.187Z,98230.97
2022-08-05T16:46:07.313Z,98223.88
2022-08-05T16:48:39.553Z,98222.19
2022-08-05T16:51:09.853Z,98216.69
2022-08-05T16:54:05.613Z,98224.16
2022-08-05T16:56:26.509Z,98227.44
2022-08-05T16:58:53.765Z,98231.31
2022-08-05T17:01:20.390Z,98242.44
2022-08-05T17:03:47.265Z,98239.34
2022-08-05T17:06:16.352Z,98236.06
2022-08-05T17:08:53.782Z,98256.91
2022-08-05T17:11:23.482Z,98275.97
2022-08-05T17:14:00.190Z,98283.16
2022-08-05T17:16:36.712Z,98291.78
2022-08-05T17:19:07.853Z,98291.16
2022-08-05T17:21:37.504Z,98293.59
2022-08-05T17:24:19.794Z,98310.78
2022-08-05T17:26:53.493Z,98321.13
2022-08-05T17:29:22.772Z,98314.28
2022-08-05T17:31:59.459Z,98330.06
2022-08-05T17:34:32.067Z,98331.88
2022-08-05T17:36:59.786Z,98330.50
2022-08-05T17:39:34.239Z,98334.25
2022-08-05T17:42:17.633Z,98344.91
2022-08-05T17:44:51.017Z,98341.25
2022-08-05T17:47:22.495Z,98349.28
2022-08-05T17:50:03.971Z,98348.84
2022-08-05T17:52:32.326Z,98353.09
2022-08-05T17:54:59.812Z,98356.84
2022-08-05T17:57:27.683Z,98374.78
2022-08-05T18:00:04.858Z,98391.00
2022-08-05T18:02:34.370Z,98404.31
2022-08-05T18:05:03.214Z,98412.34
2022-08-05T18:07:41.229Z,98419.09
2022-08-05T18:10:11.046Z,98420.44
2022-08-05T18:12:38.280Z,98426.84
2022-08-05T18:15:05.504Z,98439.22
2022-08-05T18:18:00.202Z,98439.53
2022-08-05T18:20:29.008Z,98447.16
2022-08-05T18:22:58.518Z,98450.38
2022-08-05T18:25:33.071Z,98451.03
2022-08-05T18:27:59.707Z,98456.41
2022-08-05T18:30:31.248Z,98462.47
2022-08-05T18:33:00.424Z,98463.34
2022-08-05T18:36:00.773Z,98481.09
2022-08-05T18:38:16.534Z,98488.59
2022-08-05T18:41:58.406Z,98499.75
2022-08-05T18:43:37.901Z,98503.91
2022-08-05T18:46:10.039Z,98511.28
2022-08-05T18:48:41.695Z,98525.09
2022-08-05T18:52:05.982Z,98531.16
2022-08-05T18:54:14.008Z,98534.56
2022-08-05T18:56:40.562Z,98528.94
2022-08-05T18:59:43.212Z,98532.75
2022-08-05T19:01:57.142Z,98529.91
2022-08-05T19:04:25.227Z,98545.34
2022-08-05T19:06:51.924Z,98551.69
2022-08-05T19:09:20.580Z,98564.34
2022-08-05T19:12:00.800Z,98562.75
2022-08-05T19:14:53.418Z,98580.31
2022-08-05T19:17:16.529Z,98593.53
2022-08-05T19:19:46.862Z,98596.28
2022-08-05T19:22:17.268Z,98607.34
2022-08-05T19:25:00.243Z,98608.75
2022-08-05T19:27:27.745Z,98621.13
2022-08-05T19:29:56.453Z,98623.44
2022-08-05T19:32:23.731Z,98629.19
2022-08-05T19:34:55.275Z,98623.19
2022-08-05T19:37:30.127Z,98625.38
2022-08-05T19:40:11.252Z,98630.56
2022-08-05T19:42:38.925Z,98628.50
2022-08-05T19:45:07.083Z,98620.22
2022-08-05T19:47:37.248Z,98625.88
2022-08-05T19:50:04.886Z,98626.97
2022-08-05T19:52:34.156Z,98623.72
2022-08-05T19:55:07.169Z,98632.47
2022-08-05T19:58:14.605Z,98643.31
2022-08-05T20:00:35.701Z,98645.53
2022-08-05T20:03:08.801Z,98651.78
2022-08-05T20:05:43.093Z,98663.53
2022-08-05T20:08:16.447Z,98666.59
2022-08-05T20:10:43.282Z,98673.53
2022-08-05T20:13:10.885Z,98672.78
2022-08-05T20:15:51.704Z,98676.69
2022-08-05T20:18:33.390Z,98675.06
2022-08-05T20:21:04.525Z,98686.84
2022-08-05T20:23:39.569Z,98684.09
2022-08-05T20:26:24.784Z,98684.44
2022-08-05T20:28:55.829Z,98680.66
2022-08-05T20:31:36.773Z,98682.59
2022-08-05T20:34:04.244Z,98685.81
2022-08-05T20:36:30.792Z,98679.47
2022-08-05T20:38:59.270Z,98675.25
2022-08-05T20:41:43.971Z,98684.09
2022-08-05T20:44:17.422Z,98703.75
2022-08-05T20:46:46.338Z,98710.72
2022-08-05T20:49:14.033Z,98713.59
2022-08-05T20:51:40.519Z,98705.19
2022-08-05T20:54:07.073Z,98703.31
2022-08-05T20:56:42.472Z,98710.91
2022-08-05T20:59:14.366Z,98717.97
2022-08-05T21:01:46.250Z,98731.81
2022-08-05T21:04:13.586Z,98744.00
2022-08-05T21:06:45.625Z,98739.41
2022-08-05T21:09:14.590Z,98754.78
2022-08-05T21:12:10.491Z,98766.00
2022-08-05T21:14:29.302Z,98777.81
2022-08-05T21:17:01.489Z,98780.75
2022-08-05T21:19:29.613Z,98785.25
2022-08-05T21:22:14.219Z,98795.03
2022-08-05T21:24:40.946Z,98798.72
2022-08-05T21:27:09.187Z,98812.94
2022-08-05T21:29:40.628Z,98818.81
2022-08-05T21:32:07.681Z,98831.19
2022-08-05T21:34:35.579Z,98835.50
2022-08-05T21:37:02.330Z,98833.41
2022-08-05T21:39:29.168Z,98834.75
2022-08-05T21:42:01.878Z,98837.88
2022-08-05T21:44:29.701Z,98836.31
2022-08-05T21:46:58.068Z,98840.03
2022-08-05T21:49:48.554Z,98841.00
2022-08-05T21:52:21.530Z,98834.91
2022-08-05T21:54:55.038Z,98822.47
2022-08-05T21:57:31.624Z,98838.13
2022-08-05T22:00:06.399Z,98836.84
2022-08-05T22:02:37.421Z,98837.81
2022-08-05T22:05:04.783Z,98822.66
2022-08-05T22:07:40.052Z,98826.34
2022-08-05T22:10:27.047Z,98832.50
2022-08-05T22:12:59.225Z,98833.94
2022-08-05T22:16:01.097Z,98833.94
2022-08-05T22:18:24.851Z,98847.50
2022-08-05T22:20:52.419Z,98854.94
2022-08-05T22:24:02.979Z,98866.22
2022-08-05T22:26:42.252Z,98872.38
2022-08-05T22:29:17.416Z,98872.69
2022-08-05T22:31:45.371Z,98872.53
2022-08-05T22:34:12.928Z,98859.59
2022-08-05T22:36:52.327Z,98863.34
2022-08-05T22:39:21.588Z,98866.84
2022-08-05T22:42:09.264Z,98872.34
2022-08-05T22:44:34.855Z,98872.50
2022-08-05T22:47:05.755Z,98871.50
2022-08-05T22:50:20.747Z,98876.31
2022-08-05T22:52:30.629Z,98878.44
2022-08-05T22:55:00.768Z,98869.75
2022-08-05T22:57:27.195Z,98869.31
2022-08-05T23:00:03.758Z,98858.84
2022-08-05T23:02:30.426Z,98860.97
2022-08-05T23:05:02.012Z,98858.59
2022-08-05T23:07:31.831Z,98864.25
2022-08-05T23:10:02.054Z,98860.41
2022-08-05T23:12:32.525Z,98860.38
2022-08-05T23:15:09.143Z,98854.88
2022-08-05T23:17:42.571Z,98855.84
2022-08-05T23:20:23.585Z,98846.50
2022-08-05T23:22:56.322Z,98852.63
2022-08-05T23:25:52.618Z,98848.59
2022-08-05T23:28:10.450Z,98854.41
2022-08-05T23:30:39.678Z,98849.28
2022-08-05T23:33:07.440Z,98851.63
2022-08-05T23:35:48.807Z,98845.31
2022-08-05T23:38:16.012Z,98833.91
2022-08-05T23:40:50.235Z,98835.97
2022-08-05T23:43:25.443Z,98840.16
2022-08-05T23:46:05.266Z,98836.09
2022-08-05T23:49:00.817Z,98844.47
2022-08-05T23:51:52.597Z,98841.41
2022-08-05T23:54:26.653Z,98841.00
2022-08-05T23:57:03.890Z,98852.28
